DW2099 Weather Reports


Display with metric or nautical units.
time (UTC)temp
F
wind
direction
speed
MPH
gust
MPH
rain 1hr
in
rain 24hr
in
rain mn
in
humidity
%
barometer
mb
20210619052018 71 0.0 0.0 0.00 0.00 0.00 85 1014.0
20210619051018 71 0.0 0.0 0.00 0.00 0.00 84 1014.0
20210619050017 71 0.0 0.0 0.00 0.00 0.00 84 1014.1
20210619045017 72 0.0 0.0 0.00 0.00 0.00 82 1014.1
20210619044017 72 0.0 0.0 0.00 0.00 0.00 81 1014.0
20210619043018 73 0.0 0.0 0.00 0.00 0.00 80 1014.0
20210619042016 74 0.0 0.0 0.00 0.00 0.00 79 1013.9
20210619041015 74 0.0 0.0 0.00 0.00 0.00 77 1013.9
20210619040015 75 0.0 0.0 0.00 0.00 0.00 75 1014.0
20210619035015 76 0.0 0.0 0.00 0.00 0.00 73 1013.9
20210619034016 77 0.0 0.0 0.00 0.00 0.00 71 1013.8
20210619033015 77 0.0 0.0 0.00 0.00 0.00 70 1013.7
20210619032018 78 0.0 0.0 0.00 0.00 0.00 69 1013.6
20210619031022 78 0.0 0.0 0.00 0.00 0.00 68 1013.5
20210619030015 78 0.0 0.0 0.00 0.00 0.00 67 1013.3
20210619025015 79 0.0 0.0 0.00 0.00 0.00 66 1013.2
20210619024017 79 0.0 0.0 0.00 0.00 0.00 66 1013.0
20210619023017 80 0.0 0.0 0.00 0.00 0.00 65 1012.9
20210619022020 81 0.0 0.0 0.00 0.00 0.00 63 1012.8
20210619021018 81 0.0 0.0 0.00 0.00 0.00 63 1012.9
20210619020020 82 0.0 0.0 0.00 0.00 0.00 62 1012.7
20210619015019 82 0.0 0.0 0.00 0.00 0.00 61 1012.7
20210619014018 83 0.0 2.0 0.00 0.00 0.00 60 1012.7
20210619013017 84 0.0 1.0 0.00 0.00 0.00 59 1012.6
20210619012019 85 0.0 1.0 0.00 0.00 0.00 57 1012.5
20210619011018 86 0.0 1.0 0.00 0.00 0.00 56 1012.5
20210619010017 86 315 1.0 3.0 0.00 0.00 0.00 56 1012.4
20210619005017 86 0.0 2.0 0.00 0.00 0.00 56 1012.3
20210619004018 87 0.0 2.0 0.00 0.00 0.00 54 1012.3
20210619003017 88 315 1.0 2.0 0.00 0.00 0.00 52 1012.2
20210619002017 88 338 1.0 2.0 0.00 0.00 0.00 50 1012.1
20210619001017 89 270 1.0 4.0 0.00 0.00 0.00 49 1012.1
20210619000017 89 0.0 2.0 0.00 0.00 0.00 49 1012.1
20210618235017 89 315 1.0 4.0 0.00 0.00 0.00 48 1012.1
20210618234018 90 248 1.0 1.0 0.00 0.00 0.00 48 1012.1
20210618233017 90 315 1.0 3.0 0.00 0.00 0.00 49 1012.1
20210618232017 91 315 1.0 2.0 0.00 0.00 0.00 48 1012.2
20210618231017 92 315 1.0 5.0 0.00 0.00 0.00 44 1012.2
20210618230017 92 315 1.0 4.0 0.00 0.00 0.00 45 1012.3
20210618225017 93 45 1.0 1.0 0.00 0.00 0.00 45 1012.4
20210618224016 93 315 1.0 3.0 0.00 0.00 0.00 44 1012.4
20210618223018 94 338 1.0 3.0 0.00 0.00 0.00 41 1012.5
20210618222016 94 135 1.0 4.0 0.00 0.00 0.00 42 1012.4
20210618221017 93 338 2.0 5.0 0.00 0.00 0.00 44 1012.7
20210618220017 94 315 1.0 3.0 0.00 0.00 0.00 43 1012.6
20210618215016 94 315 2.0 4.0 0.00 0.00 0.00 42 1012.9
20210618214018 95 0.0 2.0 0.00 0.00 0.00 47 1013.0
20210618213018 95 135 1.0 3.0 0.00 0.00 0.00 44 1013.0
20210618212016 94 338 1.0 3.0 0.00 0.00 0.00 46 1013.0
20210618211017 95 225 1.0 3.0 0.00 0.00 0.00 44 1013.1
20210618210016 95 135 1.0 5.0 0.00 0.00 0.00 45 1013.2
20210618205017 94 225 1.0 4.0 0.00 0.00 0.00 47 1013.2
20210618204016 91 315 1.0 3.0 0.00 0.00 0.00 50 1013.3
20210618203018 93 293 1.0 3.0 0.00 0.00 0.00 46 1013.4
20210618202017 92 315 1.0 4.0 0.00 0.00 0.00 50 1013.5
20210618201016 93 315 1.0 4.0 0.00 0.00 0.00 47 1013.6
20210618200016 95 0.0 2.0 0.00 0.00 0.00 49 1013.7
20210618195017 93 0.0 2.0 0.00 0.00 0.00 51 1013.8
20210618194016 93 90 1.0 4.0 0.00 0.00 0.00 48 1013.8
20210618193016 94 180 1.0 2.0 0.00 0.00 0.00 53 1013.9
20210618192017 92 0.0 1.0 0.00 0.00 0.00 53 1013.9
20210618191016 92 68 1.0 2.0 0.00 0.00 0.00 55 1014.0
20210618190016 91 203 1.0 5.0 0.00 0.00 0.00 57 1014.0
20210618185016 92 90 1.0 4.0 0.00 0.00 0.00 56 1014.1
20210618184016 91 90 1.0 2.0 0.00 0.00 0.00 56 1014.3
20210618183016 90 293 1.0 4.0 0.00 0.00 0.00 59 1014.7
20210618182016 91 90 1.0 3.0 0.00 0.00 0.00 57 1014.7
20210618181016 90 45 2.0 6.0 0.00 0.00 0.00 58 1014.8
20210618180016 89 315 1.0 3.0 0.00 0.00 0.00 59 1014.9
20210618175016 89 293 1.0 4.0 0.00 0.00 0.00 59 1014.9
20210618174016 89 113 1.0 3.0 0.00 0.00 0.00 58 1015.1
20210618173016 88 68 1.0 3.0 0.00 0.00 0.00 60 1015.1
20210618172016 89 315 1.0 2.0 0.00 0.00 0.00 58 1015.3
20210618171016 91 293 1.0 6.0 0.00 0.00 0.00 55 1015.3
20210618170016 91 315 1.0 3.0 0.00 0.00 0.00 57 1015.4
20210618165016 89 315 1.0 3.0 0.00 0.00 0.00 58 1015.5
20210618164017 89 270 1.0 3.0 0.00 0.00 0.00 59 1015.6
20210618163016 88 270 1.0 7.0 0.00 0.00 0.00 58 1015.6
20210618162016 89 315 2.0 4.0 0.00 0.00 0.00 57 1015.7
20210618161016 89 113 1.0 3.0 0.00 0.00 0.00 57 1015.7
20210618160016 89 315 1.0 4.0 0.00 0.00 0.00 58 1015.8
20210618155016 89 113 1.0 2.0 0.00 0.00 0.00 55 1015.8
20210618154016 88 315 1.0 4.0 0.00 0.00 0.00 55 1015.9
20210618153016 88 293 1.0 2.0 0.00 0.00 0.00 57 1015.9
20210618152017 88 0.0 1.0 0.00 0.00 0.00 57 1015.9
20210618151018 87 0.0 1.0 0.00 0.00 0.00 59 1015.9
20210618150018 87 0.0 1.0 0.00 0.00 0.00 58 1015.9
20210618145029 87 0.0 0.0 0.00 0.00 0.00 61 1015.9
20210618144016 85 293 1.0 2.0 0.00 0.00 0.00 59 1016.0
20210618143016 85 293 1.0 2.0 0.00 0.00 0.00 61 1015.9
20210618142018 85 270 1.0 2.0 0.00 0.00 0.00 62 1016.0
20210618141018 85 0.0 1.0 0.00 0.00 0.00 63 1015.9
20210618140022 83 0.0 1.0 0.00 0.00 0.00 67 1015.8
20210618135016 82 293 1.0 1.0 0.00 0.00 0.00 69 1015.7
20210618134016 81 0.0 2.0 0.00 0.00 0.00 73 1015.6
20210618133017 80 0.0 0.0 0.00 0.00 0.00 80 1015.6
20210618132017 78 0.0 0.0 0.00 0.00 0.00 82 1015.5
20210618131018 78 0.0 0.0 0.00 0.00 0.00 84 1015.4
20210618130017 76 0.0 0.0 0.00 0.00 0.00 88 1015.4
20210618125018 75 0.0 0.0 0.00 0.00 0.00 91 1015.4
20210618124017 75 0.0 0.0 0.00 0.00 0.00 92 1015.4
20210618123018 74 0.0 0.0 0.00 0.00 0.00 92 1015.3
20210618122016 74 0.0 0.0 0.00 0.00 0.00 93 1015.3
20210618121015 74 0.0 0.0 0.00 0.00 0.00 93 1015.3
20210618120018 74 0.0 0.0 0.00 0.00 0.00 93 1015.3
20210618115518 74 0.0 0.0 0.00 0.00 0.00 93 1015.3
20210618114516 74 0.0 0.0 0.00 0.00 0.00 93 1015.2
20210618113518 74 0.0 0.0 0.00 0.00 0.00 92 1015.3
20210618112517 74 0.0 0.0 0.00 0.00 0.00 92 1015.3
20210618111518 74 0.0 0.0 0.00 0.00 0.00 92 1015.2
20210618110516 74 0.0 0.0 0.00 0.00 0.00 92 1015.2
20210618105522 74 0.0 0.0 0.00 0.00 0.00 92 1015.3
20210618104527 74 0.0 0.0 0.00 0.00 0.00 92 1015.3
20210618103519 75 0.0 0.0 0.00 0.00 0.00 91 1015.3
20210618102519 75 0.0 0.0 0.00 0.00 0.00 90 1015.3
20210618101518 75 0.0 0.0 0.00 0.00 0.00 89 1015.4
20210618100516 75 0.0 0.0 0.00 0.00 0.00 89 1015.3
20210618095531 75 0.0 0.0 0.00 0.00 0.00 89 1015.2
20210618094526 76 0.0 0.0 0.00 0.00 0.00 88 1015.2
20210618093530 76 0.0 1.0 0.00 0.00 0.00 88 1015.2
20210618092516 76 0.0 1.0 0.00 0.00 0.00 87 1015.2
20210618091527 77 0.0 1.0 0.00 0.00 0.00 86 1015.3
20210618090516 77 293 1.0 3.0 0.00 0.00 0.00 86 1015.2
20210618085516 77 0.0 2.0 0.00 0.00 0.00 85 1015.2
20210618084516 78 293 1.0 3.0 0.00 0.00 0.00 84 1015.2
20210618083515 78 315 1.0 4.0 0.00 0.00 0.00 84 1015.3
20210618082515 78 293 1.0 2.0 0.00 0.00 0.00 83 1015.3
20210618081515 79 293 1.0 2.0 0.00 0.00 0.00 82 1015.4
20210618080515 79 270 1.0 2.0 0.00 0.00 0.00 81 1015.4
20210618075515 79 293 1.0 3.0 0.00 0.00 0.00 81 1015.6
20210618074515 79 0.0 2.0 0.00 0.00 0.00 81 1015.6
20210618073515 79 315 1.0 4.0 0.00 0.00 0.00 81 1015.6
20210618072515 79 0.0 3.0 0.00 0.00 0.00 81 1015.5
20210618071515 80 0.0 1.0 0.00 0.00 0.00 81 1015.4
20210618070519 79 0.0 1.0 0.00 0.00 0.00 81 1015.5
20210618065517 79 0.0 0.0 0.00 0.00 0.00 81 1015.6
20210618064518 79 0.0 2.0 0.00 0.00 0.00 81 1015.6
20210618063518 79 0.0 1.0 0.00 0.00 0.00 81 1015.7
20210618062518 79 0.0 1.0 0.00 0.00 0.00 81 1015.6
20210618061518 80 0.0 1.0 0.00 0.00 0.00 80 1015.7
20210618060517 80 0.0 2.0 0.00 0.00 0.00 80 1015.7
20210618055517 80 0.0 1.0 0.00 0.00 0.00 80 1015.7
20210618054517 80 0.0 1.0 0.00 0.00 0.00 79 1015.7
20210618053517 81 0.0 2.0 0.00 0.00 0.00 79 1015.7